Home   Weather   Portugal   Lisbon   Past weeks
Flag for Portugal

Past Weather in Lisbon, Portugal — August 2021

Currently: 50 °F. Clear. (Weather station: Lisbon Portela Airport, Portugal). See more current weather

August 2021 Weather in Lisbon — Graph

°F

High & Low Weather Summary for August 2021

 TemperatureHumidityPressure
High93 °F (Aug 13, 3:30 pm)94% (Aug 2, 2:00 am)30.15 "Hg (Aug 2, 2:00 am)
Low59 °F (Aug 9, 6:00 am)22% (Aug 15, 4:30 pm)29.86 "Hg (Aug 24, 4:00 am)
Average71 °F69%30.02 "Hg
* Reported Aug 1 12:00 am — Aug 31 11:30 pm, Lisbon. Weather by CustomWeather, © 2023

Note: Actual official high and low records may vary slightly from our data, if they occured in-between our weather recording intervals... More about our weather records

Lisbon Weather History for August 1, 2021

Scroll right to see more
 ConditionsComfort  
Time TempWeatherWind HumidityBarometerVisibility
12:00 am
Sun, Aug 1
63 °FClear.15 mph77%30.15 "Hg10 mi
12:30 am61 °FClear.13 mph83%30.12 "Hg10 mi
2:00 am61 °FClear.10 mph83%30.12 "Hg10 mi
2:30 am61 °FClear.12 mph88%30.12 "Hg10 mi
3:00 am61 °FClear.9 mph83%30.12 "Hg10 mi
3:30 am61 °FClear.14 mph83%30.09 "Hg10 mi
4:00 am61 °FClear.14 mph83%30.09 "Hg10 mi
4:30 am61 °FClear.10 mph83%30.09 "Hg10 mi
5:00 am61 °FClear.12 mph83%30.09 "Hg10 mi
5:30 am61 °FClear.10 mph83%30.09 "Hg10 mi
6:00 am61 °FClear.9 mph83%30.09 "Hg10 mi
6:30 am61 °FPassing clouds.7 mph83%30.09 "HgN/A
7:00 am61 °FPassing clouds.8 mph83%30.12 "HgN/A
7:30 am61 °FPassing clouds.9 mph83%30.12 "HgN/A
8:30 am64 °FPassing clouds.10 mph78%30.12 "HgN/A
9:00 am66 °FPassing clouds.13 mph73%30.12 "HgN/A
9:30 am66 °FPassing clouds.10 mph73%30.12 "HgN/A
10:00 am68 °FPassing clouds.7 mph69%30.12 "HgN/A
10:30 am70 °FPassing clouds.6 mph60%30.12 "HgN/A
11:00 am70 °FPassing clouds.6 mph60%30.12 "HgN/A
11:30 am72 °FPassing clouds.7 mph57%30.12 "HgN/A
12:00 pm73 °FPassing clouds.7 mph57%30.12 "HgN/A
12:30 pm73 °FPassing clouds.10 mph53%30.12 "HgN/A
1:00 pm75 °FScattered clouds.12 mph54%30.09 "HgN/A
1:30 pm75 °FPassing clouds.12 mph54%30.09 "HgN/A
2:00 pm75 °FPassing clouds.10 mph57%30.09 "HgN/A
2:30 pm75 °FPassing clouds.9 mph57%30.09 "HgN/A
3:00 pm75 °FPassing clouds.13 mph57%30.09 "HgN/A
3:30 pm75 °FPassing clouds.13 mph61%30.07 "HgN/A
4:00 pm75 °FScattered clouds.13 mph61%30.09 "HgN/A
4:30 pm75 °FPassing clouds.13 mph61%30.07 "HgN/A
5:00 pm73 °FScattered clouds.14 mph65%30.07 "HgN/A
5:30 pm72 °FPartly sunny.13 mph73%30.07 "HgN/A
6:00 pm73 °FPartly sunny.12 mph69%30.07 "HgN/A
6:30 pm72 °FPartly sunny.12 mph73%30.07 "HgN/A
7:00 pm72 °FPartly sunny.9 mph73%30.04 "HgN/A
7:30 pm72 °FScattered clouds.10 mph73%30.04 "HgN/A
8:00 pm72 °FScattered clouds.9 mph73%30.04 "HgN/A
8:30 pm70 °FPassing clouds.9 mph73%30.04 "HgN/A
9:00 pm68 °FPassing clouds.7 mph83%30.04 "HgN/A
9:30 pm68 °FPassing clouds.7 mph83%30.04 "HgN/A
10:00 pm68 °FPassing clouds.6 mph83%30.07 "HgN/A
10:30 pm68 °FPassing clouds.3 mph83%30.04 "HgN/A
11:00 pm68 °FPassing clouds.5 mph88%30.04 "HgN/A
11:30 pm68 °FPassing clouds.5 mph88%30.04 "HgN/A
Weather by CustomWeather, © 2023

See weather overview